Time;durP1;ratioP1;P1;durP2;ratioP2;P2;SDS_P1;SDS_P2;PMS_P1;PMS_P2;Temp;Humidity;BMP_temperature;BMP_pressure;BME280_temperature;BME280_humidity;BME280_pressure;Samples;Min_cycle;Max_cycle;Signal;HPM_P1;HPM_P2
2022/03/14 00:05:07;;;;;;;;;3.50;3.50;;;;;;;;2;261075113;261075113;-83
2022/03/14 00:13:23;;;;;;;;;2.00;2.00;;;;;;;;2;261076355;261076355;-83
2022/03/14 00:22:23;;;;;;;;;1.50;1.50;;;;;;;;2;261076630;261076630;-83
2022/03/14 00:30:39;;;;;;;;;1.50;1.50;;;;;;;;2;261077456;261077456;-83
2022/03/14 00:39:41;;;;;;;;;3.00;3.00;;;;;;;;2;261074993;261074993;-83
2022/03/14 00:47:56;;;;;;;;;14.00;3.00;;;;;;;;2;261077692;261077692;-84
2022/03/14 00:56:57;;;;;;;;;1.50;1.50;;;;;;;;2;261076548;261076548;-83
2022/03/14 01:05:12;;;;;;;;;1.00;1.00;;;;;;;;2;261074623;261074623;-83
2022/03/14 01:14:13;;;;;;;;;5.00;1.00;;;;;;;;2;261075199;261075199;-83
2022/03/14 01:22:29;;;;;;;;;6.00;2.00;;;;;;;;2;261073893;261073893;-84
2022/03/14 01:31:29;;;;;;;;;5.50;1.00;;;;;;;;2;261076125;261076125;-84
2022/03/14 01:39:45;;;;;;;;;0.50;0.50;;;;;;;;2;261075589;261075589;-82
2022/03/14 01:48:45;;;;;;;;;0.50;0.50;;;;;;;;2;261070289;261070289;-82
2022/03/14 01:57:01;;;;;;;;;2.50;2.50;;;;;;;;2;261071588;261071588;-82
2022/03/14 02:06:02;;;;;;;;;0.50;0.50;;;;;;;;2;261076923;261076923;-82
2022/03/14 02:14:17;;;;;;;;;2.50;2.50;;;;;;;;2;261074864;261074864;-82
2022/03/14 02:23:17;;;;;;;;;3.50;3.50;;;;;;;;2;261076415;261076415;-82
2022/03/14 02:31:36;;;;;;;;;2.00;2.00;;;;;;;;2;261075452;261075452;-82
2022/03/14 02:40:40;;;;;;;;;0.50;0.50;;;;;;;;2;261075849;261075849;-82
2022/03/14 02:48:55;;;;;;;;;1.00;1.00;;;;;;;;2;261078560;261078560;-82
2022/03/14 02:57:55;;;;;;;;;13.00;2.00;;;;;;;;2;261078409;261078409;-82
2022/03/14 03:06:11;;;;;;;;;0.00;0.00;;;;;;;;2;260529710;260529710;-82
2022/03/14 03:15:15;;;;;;;;;2.00;2.00;;;;;;;;2;261033133;261033133;-82
2022/03/14 03:23:31;;;;;;;;;4.50;4.50;;;;;;;;2;261076254;261076254;-82
2022/03/14 03:32:31;;;;;;;;;0.50;0.50;;;;;;;;2;260931410;260931410;-82
2022/03/14 03:40:43;;;;;;;;;3.00;3.00;;;;;;;;2;260940077;260940077;-82
2022/03/14 03:48:54;;;;;;;;;0.50;0.50;;;;;;;;2;236562606;236562606;-82
2022/03/14 03:58:48;;;;;;;;;1.50;1.50;;;;;;;;166496;29;261078481;-82
2022/03/14 04:07:06;;;;;;;;;1.50;1.50;;;;;;;;2;261075658;261075658;-82
2022/03/14 04:16:07;;;;;;;;;1.00;1.00;;;;;;;;2;261075668;261075668;-82
2022/03/14 04:24:24;;;;;;;;;3.50;3.50;;;;;;;;2;261075147;261075147;-83
2022/03/14 04:33:24;;;;;;;;;4.50;4.50;;;;;;;;2;261075479;261075479;-83
2022/03/14 04:41:39;;;;;;;;;1.50;1.50;;;;;;;;2;261073942;261073942;-83
2022/03/14 04:50:41;;;;;;;;;1.00;1.00;;;;;;;;2;261073375;261073375;-82
2022/03/14 04:58:57;;;;;;;;;1.50;1.50;;;;;;;;2;261072806;261072806;-82
2022/03/14 05:07:57;;;;;;;;;4.00;4.00;;;;;;;;2;261073236;261073236;-83
2022/03/14 05:16:13;;;;;;;;;5.00;3.50;;;;;;;;2;261078119;261078119;-83
2022/03/14 05:25:13;;;;;;;;;4.50;4.50;;;;;;;;2;261075106;261075106;-83
2022/03/14 05:33:29;;;;;;;;;3.00;3.00;;;;;;;;2;261075491;261075491;-83
2022/03/14 05:42:29;;;;;;;;;2.50;2.50;;;;;;;;2;261078457;261078457;-83
2022/03/14 05:50:48;;;;;;;;;1.50;1.50;;;;;;;;2;261073853;261073853;-82
2022/03/14 05:59:48;;;;;;;;;4.00;4.00;;;;;;;;2;261075640;261075640;-83
2022/03/14 06:08:04;;;;;;;;;3.00;3.00;;;;;;;;2;260963611;260963611;-83
2022/03/14 06:17:03;;;;;;;;;5.50;5.50;;;;;;;;2;260299424;260299424;-83
2022/03/14 06:25:19;;;;;;;;;2.50;2.50;;;;;;;;2;261074379;261074379;-82
2022/03/14 06:34:19;;;;;;;;;15.00;3.50;;;;;;;;2;261072968;261072968;-82
2022/03/14 06:42:41;;;;;;;;;5.00;5.00;;;;;;;;2;261075774;261075774;-82
2022/03/14 06:51:42;;;;;;;;;15.50;3.50;;;;;;;;2;261079884;261079884;-81
2022/03/14 06:59:57;;;;;;;;;14.50;2.50;;;;;;;;2;261072987;261072987;-81
2022/03/14 07:08:58;;;;;;;;;7.00;3.00;;;;;;;;2;261083109;261083109;-81
2022/03/14 07:17:13;;;;;;;;;5.50;4.00;;;;;;;;2;261080907;261080907;-83
2022/03/14 07:26:14;;;;;;;;;6.00;6.00;;;;;;;;2;261082585;261082585;-82
2022/03/14 07:34:31;;;;;;;;;4.00;4.00;;;;;;;;2;261079742;261079742;-82
2022/03/14 07:43:31;;;;;;;;;1.50;1.50;;;;;;;;2;261082839;261082839;-82
2022/03/14 07:51:47;;;;;;;;;2.50;2.50;;;;;;;;2;261083024;261083024;-80
2022/03/14 08:00:48;;;;;;;;;4.00;4.00;;;;;;;;2;261080900;261080900;-81
2022/03/14 08:09:03;;;;;;;;;4.50;3.00;;;;;;;;2;261085990;261085990;-81
2022/03/14 08:18:05;;;;;;;;;3.50;3.50;;;;;;;;2;261084233;261084233;-79
2022/03/14 08:26:22;;;;;;;;;5.00;5.00;;;;;;;;2;261081799;261081799;-81
2022/03/14 08:35:23;;;;;;;;;8.00;4.50;;;;;;;;2;261082770;261082770;-80
2022/03/14 09:39:54;;;;;;;;;;;;;;;;;;;;;
2022/03/14 10:07:58;;;;;;;;;;;;;;;;;;;;;
2022/03/14 10:26:37;;;;;;;;;;;;;;;;;;;;;
2022/03/14 14:30:50;;;;;;;;;;;;;;;;;;2;261274063;261274063;-83
2022/03/14 18:14:50;;;;;;;;;;;;;;;;;;;;;
2022/03/14 18:33:32;;;;;;;;;;;;;;;;;;;;;
2022/03/14 18:42:25;;;;;;;;;;;;;;;;;;;;;
2022/03/14 18:51:20;;;;;;;;;6.50;6.50;;;;;;;;2;261083314;261083314;-82
2022/03/14 19:00:08;;;;;;;;;;;;;;;;;;;;;
2022/03/14 19:09:09;;;;;;;;;14.00;7.00;;;;;;;;2;261110908;261110908;-83
2022/03/14 19:17:24;;;;;;;;;9.50;5.00;;;;;;;;2;261081820;261081820;-83
2022/03/14 19:26:25;;;;;;;;;27.00;9.50;;;;;;;;2;261077652;261077652;-82
2022/03/14 19:34:42;;;;;;;;;22.00;11.00;;;;;;;;2;261076708;261076708;-83
2022/03/14 19:43:45;;;;;;;;;3.00;3.00;;;;;;;;2;261077655;261077655;-84
2022/03/14 19:52:06;;;;;;;;;6.00;6.00;;;;;;;;2;261077516;261077516;-84
2022/03/14 20:01:10;;;;;;;;;10.00;6.00;;;;;;;;2;261081206;261081206;-84
2022/03/14 20:09:36;;;;;;;;;23.00;9.00;;;;;;;;2;261074586;261074586;-87
2022/03/14 20:18:36;;;;;;;;;6.50;3.50;;;;;;;;2;261081124;261081124;-88
2022/03/14 22:34:35;;;;;;;;;7.00;7.00;;;;;;;;2;261094673;261094673;-82
